Aérodrome :
LOGIN :

S'inscrire | Disclaimer

   EN    FR    IT 

 










Légende :    VFR   VFR Marginal   IFR   IFR Intensif   IFR Très Intensif
Visi : 
Plafond : 
>= 8 km
>= 3000ft
5 à 8 km
1000 à 3000 ft
1500m à 5 km
500 à 1000 ft
800 à 1500m
200 à 500 ft
< 800m
< 200 ft
Symboles :   Orages  Brouillard  Fortes neiges  Fortes précipitations  Vent > 20 kt
SIGMETs :   Divers  Orages  Givrage  Turbulence  Onde Orograph.  Cendres Volcan.






- Altitude de l'aérodrome : 2555 ft
- Code IATA : ADJ


OJAM - Marka Int.

DERNIER METAR :
  • 210700Z 21002KT 4000 HZ FEW035 SCT180 09/06 Q1018 NOSIG

METARs EXPIRÉS :
  • 210600Z 27002KT 3000 BR FEW040 07/06 Q1018 NOSIG
  • 210500Z 00000KT 5000 BR SCT035 07/05 Q1018 NOSIG

TAF TAF OJAM
Valide du 21 à 06h jusqu'au 22 à 12h UTC


210551Z 2106/2212 VRB01KT 3000 BR FEW030
BECMG 2108/2110 26010KT 5000 HZ SCT020
TEMPO 2200/2212 3000 RA FEW020TCU BKN025



MET'MAP, la Météo Aéronautique d'un coup d'oeil ! - Copyright ORBIFLY Décembre 2007 - Disclaimer

ORBIFLY MET'MAP TEAM :

Programmation & Développement : Alexandra Zaïnal
Sur une idée originale de : Baudouin d'Aumeries
Assistance à la programmation : Marc-Olivier Méhu
Soutien technique & logistique : Manuel Goepfert

Contact : metmap@orbifly.com




SOURCES & CREDITS :

   NOAA